Astoria, OR

3:47 AM PDT on October 31, 2014 (GMT -0700)
The Slope of South | Change Station
CLOSE
Current Station
Personal Weather Station
Location: Astoria, OR
Elevation: 213 ft
Nearby Weather Stations

Elev 213 ft 46.18 °N, 123.84 °W | Updated 9 minutes ago

Rain
Rain
52.0 °F
Feels Like 52.0 °F
N
1.7
Wind Variable Wind from SW

Today
High -- | Low -- °F
--% Chance of Precip.
Yesterday
High -- | Low -- °F
Precip. -- in
7:54 AM 6:02 PM
First Quarter, 54% visible
Pressure 29.73 in
Visibility 7.0 miles
Clouds Scattered Clouds 700 ft
Mostly Cloudy 1700 ft
Overcast 3100 ft
Dew Point 52 °F
Humidity 99%
Rainfall 0.06 in
Snow Depth Not available.
UV 0 out of 12
Pollen .30 out of 12
Air Quality Not available.
Flu Activity Not available.
SPECI KAST 311042Z AUTO 32007KT 7SM -RA SCT007 BKN017 OVC031 12/11 A2973 RMK AO2 P0005 T01170106

More Conditions Fewer Conditions

Pressure 29.73 in
Visibility 7.0 miles
Clouds Scattered Clouds 700 ft
Mostly Cloudy 1700 ft
Overcast 3100 ft
Dew Point 52 °F
Humidity 99%
Rainfall 0.06 in
Snow Depth Not available.
UV 0 out of 12
Pollen .30 out of 12
Air Quality Not available.
Flu Activity Not available.
SPECI KAST 311042Z AUTO 32007KT 7SM -RA SCT007 BKN017 OVC031 12/11 A2973 RMK AO2 P0005 T01170106

More Conditions Fewer Conditions

10-Day Weather Forecast

Almanac

Astronomy

Oct. 31, 2014 Rise Set
Actual Time
Civil Twilight
Nautical Twilight
Astronomical Twilight
Moon
Length of Visible Light
Length of Day
Tomorrow will be .
, % of the Moon is Illuminated

Today's Extremes

State Highs State Lows

Community

WunderPhotos

Upload Photos

1,766,580 photos uploaded!

WunderBlogs® & News

Nearby

Air Quality

  Air Quality AQ Index Pollutant
Not available.

Snow Depth

Station Depth Elevation

Earthquake Activity

City Distance Mag. Time & Date
Minimum magnitude displayed is 2.5.

Coastal Water Temperatures

Place Temperature

Nearby Weather Stations